sensor_id;sensor_type;location;lat;lon;timestamp;pressure;altitude;pressure_sealevel;temperature;humidity
43488;BME280;29078;41.932;25.554;2023-04-05T00:01:34;98853.50;;;9.15;59.71
43488;BME280;29078;41.932;25.554;2023-04-05T00:04:00;98849.16;;;9.08;59.85
43488;BME280;29078;41.932;25.554;2023-04-05T00:06:28;98798.53;;;8.76;59.70
43488;BME280;29078;41.932;25.554;2023-04-05T00:08:57;98800.09;;;8.71;59.74
43488;BME280;29078;41.932;25.554;2023-04-05T00:11:27;98847.28;;;9.02;59.65
43488;BME280;29078;41.932;25.554;2023-04-05T00:13:54;98708.16;;;8.18;59.42
43488;BME280;29078;41.932;25.554;2023-04-05T00:16:19;98823.69;;;8.94;59.48
43488;BME280;29078;41.932;25.554;2023-04-05T00:18:45;98759.69;;;8.42;59.45
43488;BME280;29078;41.932;25.554;2023-04-05T00:21:16;98843.53;;;9.11;59.26
43488;BME280;29078;41.932;25.554;2023-04-05T00:23:41;98851.72;;;9.01;59.18
43488;BME280;29078;41.932;25.554;2023-04-05T00:26:10;98852.44;;;9.10;58.88
43488;BME280;29078;41.932;25.554;2023-04-05T00:28:35;98777.53;;;8.62;58.61
43488;BME280;29078;41.932;25.554;2023-04-05T00:31:01;98846.09;;;8.89;58.84
43488;BME280;29078;41.932;25.554;2023-04-05T00:33:26;98853.09;;;8.82;59.04
43488;BME280;29078;41.932;25.554;2023-04-05T00:35:51;98866.81;;;8.93;59.04
43488;BME280;29078;41.932;25.554;2023-04-05T00:38:17;98776.19;;;8.36;58.77
43488;BME280;29078;41.932;25.554;2023-04-05T00:40:42;98866.63;;;8.94;58.75
43488;BME280;29078;41.932;25.554;2023-04-05T00:43:07;98702.16;;;7.95;58.63
43488;BME280;29078;41.932;25.554;2023-04-05T00:45:33;98838.56;;;8.72;58.42
43488;BME280;29078;41.932;25.554;2023-04-05T00:47:59;98862.34;;;8.78;58.43
43488;BME280;29078;41.932;25.554;2023-04-05T00:50:26;98883.56;;;8.91;58.16
43488;BME280;29078;41.932;25.554;2023-04-05T00:52:56;98879.16;;;8.92;58.01
43488;BME280;29078;41.932;25.554;2023-04-05T00:55:21;98867.63;;;8.78;57.96
43488;BME280;29078;41.932;25.554;2023-04-05T00:57:47;98739.97;;;7.94;58.15
43488;BME280;29078;41.932;25.554;2023-04-05T01:00:14;98801.38;;;8.31;57.83
43488;BME280;29078;41.932;25.554;2023-04-05T01:02:47;98724.66;;;7.83;57.62
43488;BME280;29078;41.932;25.554;2023-04-05T01:11:04;98726.09;;;8.00;57.57
43488;BME280;29078;41.932;25.554;2023-04-05T01:13:31;98893.47;;;8.89;57.72
43488;BME280;29078;41.932;25.554;2023-04-05T01:15:57;98906.28;;;8.93;57.62
43488;BME280;29078;41.932;25.554;2023-04-05T01:18:23;98745.75;;;8.04;57.84
43488;BME280;29078;41.932;25.554;2023-04-05T01:32:03;98765.44;;;8.08;57.73
43488;BME280;29078;41.932;25.554;2023-04-05T01:34:42;98880.50;;;8.88;57.35
43488;BME280;29078;41.932;25.554;2023-04-05T01:37:14;98880.84;;;8.85;57.83
43488;BME280;29078;41.932;25.554;2023-04-05T01:39:42;98844.75;;;8.64;57.51
43488;BME280;29078;41.932;25.554;2023-04-05T01:42:11;98875.78;;;8.83;57.48
43488;BME280;29078;41.932;25.554;2023-04-05T01:44:37;98774.88;;;8.17;58.09
43488;BME280;29078;41.932;25.554;2023-04-05T01:47:02;98731.34;;;7.85;57.93
43488;BME280;29078;41.932;25.554;2023-04-05T01:49:27;98849.28;;;8.55;57.71
43488;BME280;29078;41.932;25.554;2023-04-05T01:51:53;98781.94;;;8.17;58.06
43488;BME280;29078;41.932;25.554;2023-04-05T01:54:18;98869.44;;;8.63;57.76
43488;BME280;29078;41.932;25.554;2023-04-05T01:56:44;98806.88;;;8.06;57.70
43488;BME280;29078;41.932;25.554;2023-04-05T01:59:10;98934.03;;;8.80;57.68
43488;BME280;29078;41.932;25.554;2023-04-05T02:01:35;98884.94;;;8.73;57.50
43488;BME280;29078;41.932;25.554;2023-04-05T02:04:01;98785.19;;;8.04;57.96
43488;BME280;29078;41.932;25.554;2023-04-05T02:06:27;98712.03;;;7.63;57.98
43488;BME280;29078;41.932;25.554;2023-04-05T02:08:52;98840.69;;;8.47;57.87
43488;BME280;29078;41.932;25.554;2023-04-05T02:11:18;98901.56;;;8.88;57.96
43488;BME280;29078;41.932;25.554;2023-04-05T02:13:43;98888.22;;;8.75;57.72
43488;BME280;29078;41.932;25.554;2023-04-05T02:16:09;98748.56;;;7.88;57.64
43488;BME280;29078;41.932;25.554;2023-04-05T02:18:35;98890.66;;;8.76;57.63
43488;BME280;29078;41.932;25.554;2023-04-05T02:21:07;98888.75;;;8.70;57.74
43488;BME280;29078;41.932;25.554;2023-04-05T02:23:37;98912.00;;;8.67;58.08
43488;BME280;29078;41.932;25.554;2023-04-05T02:26:02;98769.59;;;7.88;57.89
43488;BME280;29078;41.932;25.554;2023-04-05T02:28:28;98858.00;;;8.41;58.03
43488;BME280;29078;41.932;25.554;2023-04-05T02:30:53;98922.78;;;8.86;57.85
43488;BME280;29078;41.932;25.554;2023-04-05T02:33:19;98920.53;;;8.83;57.87
43488;BME280;29078;41.932;25.554;2023-04-05T02:35:48;98798.97;;;8.06;57.74
43488;BME280;29078;41.932;25.554;2023-04-05T02:38:13;98925.16;;;8.81;57.89
43488;BME280;29078;41.932;25.554;2023-04-05T02:40:39;98924.97;;;8.83;57.81
43488;BME280;29078;41.932;25.554;2023-04-05T02:43:06;98930.22;;;8.83;57.64
43488;BME280;29078;41.932;25.554;2023-04-05T02:45:31;98931.41;;;8.80;57.59
43488;BME280;29078;41.932;25.554;2023-04-05T02:47:57;98915.72;;;8.72;57.82
43488;BME280;29078;41.932;25.554;2023-04-05T02:50:22;98882.03;;;8.53;57.50
43488;BME280;29078;41.932;25.554;2023-04-05T02:52:48;98798.97;;;7.91;57.47
43488;BME280;29078;41.932;25.554;2023-04-05T02:55:14;98943.03;;;8.86;57.30
43488;BME280;29078;41.932;25.554;2023-04-05T02:57:41;98936.78;;;8.87;57.32
43488;BME280;29078;41.932;25.554;2023-04-05T03:00:07;98927.50;;;8.76;57.29
43488;BME280;29078;41.932;25.554;2023-04-05T03:02:32;98851.06;;;8.25;57.36
43488;BME280;29078;41.932;25.554;2023-04-05T03:04:58;98898.09;;;8.58;57.05
43488;BME280;29078;41.932;25.554;2023-04-05T03:07:26;98771.09;;;7.68;56.98
43488;BME280;29078;41.932;25.554;2023-04-05T03:09:52;98809.91;;;7.80;57.41
43488;BME280;29078;41.932;25.554;2023-04-05T03:12:19;98824.06;;;7.94;57.59
43488;BME280;29078;41.932;25.554;2023-04-05T03:14:44;98941.66;;;8.75;57.47
43488;BME280;29078;41.932;25.554;2023-04-05T03:17:11;98934.78;;;8.74;57.40
43488;BME280;29078;41.932;25.554;2023-04-05T03:19:36;98973.09;;;8.91;57.24
43488;BME280;29078;41.932;25.554;2023-04-05T03:22:03;98801.59;;;7.91;57.55
43488;BME280;29078;41.932;25.554;2023-04-05T03:24:28;98837.13;;;8.02;57.42
43488;BME280;29078;41.932;25.554;2023-04-05T03:26:53;98781.69;;;7.59;57.51
43488;BME280;29078;41.932;25.554;2023-04-05T03:29:19;98969.25;;;8.79;57.57
43488;BME280;29078;41.932;25.554;2023-04-05T03:31:44;98942.75;;;8.51;57.36
43488;BME280;29078;41.932;25.554;2023-04-05T03:34:10;98965.28;;;8.83;57.03
43488;BME280;29078;41.932;25.554;2023-04-05T03:36:35;98969.25;;;8.79;57.42
43488;BME280;29078;41.932;25.554;2023-04-05T03:39:12;98906.16;;;8.42;57.40
43488;BME280;29078;41.932;25.554;2023-04-05T03:41:39;98955.38;;;8.71;56.83
43488;BME280;29078;41.932;25.554;2023-04-05T03:44:05;98952.91;;;8.69;57.14
43488;BME280;29078;41.932;25.554;2023-04-05T03:46:30;98942.13;;;8.64;57.14
43488;BME280;29078;41.932;25.554;2023-04-05T03:48:58;98968.09;;;8.82;56.62
43488;BME280;29078;41.932;25.554;2023-04-05T03:51:24;98985.41;;;8.76;56.84
43488;BME280;29078;41.932;25.554;2023-04-05T03:53:51;98960.53;;;8.64;56.88
43488;BME280;29078;41.932;25.554;2023-04-05T03:56:17;98971.97;;;8.71;57.03
43488;BME280;29078;41.932;25.554;2023-04-05T03:58:42;98977.06;;;8.73;56.60
43488;BME280;29078;41.932;25.554;2023-04-05T04:01:08;99005.19;;;8.72;56.83
43488;BME280;29078;41.932;25.554;2023-04-05T04:03:33;98987.13;;;8.69;56.87
43488;BME280;29078;41.932;25.554;2023-04-05T04:06:02;98988.94;;;8.69;57.00
43488;BME280;29078;41.932;25.554;2023-04-05T04:08:27;98994.75;;;8.64;56.83
43488;BME280;29078;41.932;25.554;2023-04-05T04:10:53;98841.41;;;7.65;56.52
43488;BME280;29078;41.932;25.554;2023-04-05T04:13:18;98995.81;;;8.55;56.62
43488;BME280;29078;41.932;25.554;2023-04-05T04:15:44;98839.84;;;7.56;56.46
43488;BME280;29078;41.932;25.554;2023-04-05T04:18:10;99001.09;;;8.55;56.31
43488;BME280;29078;41.932;25.554;2023-04-05T04:20:39;98993.34;;;8.39;56.46
43488;BME280;29078;41.932;25.554;2023-04-05T04:23:05;98843.19;;;7.42;56.86
43488;BME280;29078;41.932;25.554;2023-04-05T04:25:35;98991.34;;;8.41;56.39
43488;BME280;29078;41.932;25.554;2023-04-05T04:28:03;99008.13;;;8.40;56.67
43488;BME280;29078;41.932;25.554;2023-04-05T04:30:28;99000.41;;;8.38;56.29
43488;BME280;29078;41.932;25.554;2023-04-05T04:32:54;99011.75;;;8.39;56.49
43488;BME280;29078;41.932;25.554;2023-04-05T04:35:25;99010.63;;;8.33;56.25
43488;BME280;29078;41.932;25.554;2023-04-05T04:38:05;99022.81;;;8.34;56.05
43488;BME280;29078;41.932;25.554;2023-04-05T04:43:07;99022.44;;;8.37;56.22
43488;BME280;29078;41.932;25.554;2023-04-05T04:45:45;98916.31;;;7.61;55.79
43488;BME280;29078;41.932;25.554;2023-04-05T04:48:16;99030.63;;;8.42;56.19
43488;BME280;29078;41.932;25.554;2023-04-05T04:50:43;99026.28;;;8.49;56.05
43488;BME280;29078;41.932;25.554;2023-04-05T04:53:10;99030.50;;;8.58;56.11
43488;BME280;29078;41.932;25.554;2023-04-05T04:55:39;98920.75;;;7.84;55.84
43488;BME280;29078;41.932;25.554;2023-04-05T04:58:08;99030.84;;;8.55;55.79
43488;BME280;29078;41.932;25.554;2023-04-05T05:00:42;99033.22;;;8.65;55.54
43488;BME280;29078;41.932;25.554;2023-04-05T05:03:09;98953.38;;;8.12;55.67
43488;BME280;29078;41.932;25.554;2023-04-05T05:05:40;99006.41;;;8.47;55.48
43488;BME280;29078;41.932;25.554;2023-04-05T05:08:06;98934.47;;;7.94;55.21
43488;BME280;29078;41.932;25.554;2023-04-05T05:10:32;99001.16;;;8.47;55.07
43488;BME280;29078;41.932;25.554;2023-04-05T05:12:57;99003.34;;;8.58;54.48
43488;BME280;29078;41.932;25.554;2023-04-05T05:15:22;98896.44;;;7.82;55.10
43488;BME280;29078;41.932;25.554;2023-04-05T05:17:48;99040.78;;;8.83;54.88
43488;BME280;29078;41.932;25.554;2023-04-05T05:20:17;99054.50;;;8.78;55.22
43488;BME280;29078;41.932;25.554;2023-04-05T05:22:42;99028.78;;;8.66;54.71
43488;BME280;29078;41.932;25.554;2023-04-05T05:25:08;98905.38;;;7.95;54.94
43488;BME280;29078;41.932;25.554;2023-04-05T05:27:34;98965.41;;;8.38;54.56
43488;BME280;29078;41.932;25.554;2023-04-05T05:30:00;99018.44;;;8.64;54.20
43488;BME280;29078;41.932;25.554;2023-04-05T05:32:25;98887.03;;;7.87;54.49
43488;BME280;29078;41.932;25.554;2023-04-05T05:34:50;99020.53;;;8.69;54.26
43488;BME280;29078;41.932;25.554;2023-04-05T05:37:16;98951.09;;;8.32;54.07
43488;BME280;29078;41.932;25.554;2023-04-05T05:39:42;99017.00;;;8.76;53.98
43488;BME280;29078;41.932;25.554;2023-04-05T05:42:10;99059.09;;;8.99;53.93
43488;BME280;29078;41.932;25.554;2023-04-05T05:44:36;99051.28;;;9.06;53.91
43488;BME280;29078;41.932;25.554;2023-04-05T05:47:02;99003.66;;;8.78;53.51
43488;BME280;29078;41.932;25.554;2023-04-05T05:49:28;99051.22;;;9.14;53.49
43488;BME280;29078;41.932;25.554;2023-04-05T05:51:54;99025.97;;;9.05;53.36
43488;BME280;29078;41.932;25.554;2023-04-05T05:54:20;98995.81;;;8.93;52.97
43488;BME280;29078;41.932;25.554;2023-04-05T05:56:46;98892.38;;;8.17;53.13
43488;BME280;29078;41.932;25.554;2023-04-05T05:59:11;99054.47;;;9.16;53.60
43488;BME280;29078;41.932;25.554;2023-04-05T06:01:37;99046.75;;;9.14;53.13
43488;BME280;29078;41.932;25.554;2023-04-05T06:04:03;99075.00;;;9.20;53.03
43488;BME280;29078;41.932;25.554;2023-04-05T06:06:29;98933.22;;;8.27;52.93
43488;BME280;29078;41.932;25.554;2023-04-05T06:08:55;99054.66;;;9.14;52.94
43488;BME280;29078;41.932;25.554;2023-04-05T06:11:21;99053.94;;;9.20;52.62
43488;BME280;29078;41.932;25.554;2023-04-05T06:13:50;99063.03;;;9.33;53.27
43488;BME280;29078;41.932;25.554;2023-04-05T06:16:17;98885.44;;;8.24;52.79
43488;BME280;29078;41.932;25.554;2023-04-05T06:18:42;99069.19;;;9.40;52.75
43488;BME280;29078;41.932;25.554;2023-04-05T06:21:08;99038.84;;;9.14;53.11
43488;BME280;29078;41.932;25.554;2023-04-05T06:23:33;99074.19;;;9.35;52.69
43488;BME280;29078;41.932;25.554;2023-04-05T06:25:59;99064.56;;;9.27;52.85
43488;BME280;29078;41.932;25.554;2023-04-05T06:28:25;98966.34;;;8.59;52.80
43488;BME280;29078;41.932;25.554;2023-04-05T06:30:50;99058.00;;;9.08;52.88
43488;BME280;29078;41.932;25.554;2023-04-05T06:33:15;99091.81;;;9.34;53.04
43488;BME280;29078;41.932;25.554;2023-04-05T06:35:41;99076.75;;;9.28;53.00
43488;BME280;29078;41.932;25.554;2023-04-05T06:38:06;99040.50;;;9.15;52.85
43488;BME280;29078;41.932;25.554;2023-04-05T06:40:32;99098.72;;;9.50;53.28
43488;BME280;29078;41.932;25.554;2023-04-05T06:42:57;99091.56;;;9.44;53.11
43488;BME280;29078;41.932;25.554;2023-04-05T06:45:24;98993.88;;;8.86;53.15
43488;BME280;29078;41.932;25.554;2023-04-05T06:47:49;99097.63;;;9.59;52.63
43488;BME280;29078;41.932;25.554;2023-04-05T06:50:15;99027.22;;;9.23;52.82
43488;BME280;29078;41.932;25.554;2023-04-05T06:52:40;99033.13;;;9.40;52.71
43488;BME280;29078;41.932;25.554;2023-04-05T06:55:06;98969.47;;;9.07;52.70
43488;BME280;29078;41.932;25.554;2023-04-05T06:57:33;99105.25;;;9.98;52.62
43488;BME280;29078;41.932;25.554;2023-04-05T06:59:58;99105.59;;;10.10;52.38
43488;BME280;29078;41.932;25.554;2023-04-05T07:02:24;99079.31;;;10.02;52.38
43488;BME280;29078;41.932;25.554;2023-04-05T07:04:49;98966.72;;;9.30;51.96
43488;BME280;29078;41.932;25.554;2023-04-05T07:07:15;99109.41;;;10.22;52.28
43488;BME280;29078;41.932;25.554;2023-04-05T07:09:41;99100.75;;;10.13;51.95
43488;BME280;29078;41.932;25.554;2023-04-05T07:12:07;98976.53;;;9.36;51.83
43488;BME280;29078;41.932;25.554;2023-04-05T07:14:34;99137.44;;;10.23;51.55
43488;BME280;29078;41.932;25.554;2023-04-05T07:17:00;99109.50;;;10.14;51.20
43488;BME280;29078;41.932;25.554;2023-04-05T07:19:26;99106.22;;;10.12;51.23
43488;BME280;29078;41.932;25.554;2023-04-05T07:21:52;99125.94;;;10.31;51.22
43488;BME280;29078;41.932;25.554;2023-04-05T07:24:17;99113.06;;;10.21;50.84
43488;BME280;29078;41.932;25.554;2023-04-05T07:26:43;99093.78;;;10.06;50.63
43488;BME280;29078;41.932;25.554;2023-04-05T07:29:09;99119.47;;;10.33;50.33
43488;BME280;29078;41.932;25.554;2023-04-05T07:31:37;98960.19;;;9.26;50.22
43488;BME280;29078;41.932;25.554;2023-04-05T07:34:02;99134.41;;;10.41;50.77
43488;BME280;29078;41.932;25.554;2023-04-05T07:36:28;99129.28;;;10.39;50.88
43488;BME280;29078;41.932;25.554;2023-04-05T07:38:55;99082.09;;;10.15;50.98
43488;BME280;29078;41.932;25.554;2023-04-05T07:41:23;99148.75;;;10.53;50.55
43488;BME280;29078;41.932;25.554;2023-04-05T07:43:48;99147.56;;;10.56;50.78
43488;BME280;29078;41.932;25.554;2023-04-05T07:46:14;99111.81;;;10.38;49.92
43488;BME280;29078;41.932;25.554;2023-04-05T07:48:40;99153.66;;;10.56;50.27
43488;BME280;29078;41.932;25.554;2023-04-05T07:51:07;99109.50;;;10.14;49.52
43488;BME280;29078;41.932;25.554;2023-04-05T07:53:33;99141.50;;;10.40;49.49
43488;BME280;29078;41.932;25.554;2023-04-05T07:58:31;99158.56;;;10.59;49.19
43488;BME280;29078;41.932;25.554;2023-04-05T08:01:00;99112.47;;;10.40;49.07
43488;BME280;29078;41.932;25.554;2023-04-05T08:03:28;99153.59;;;10.71;49.18
43488;BME280;29078;41.932;25.554;2023-04-05T08:05:54;99161.97;;;10.74;48.86
43488;BME280;29078;41.932;25.554;2023-04-05T08:08:20;99156.69;;;10.74;48.48
43488;BME280;29078;41.932;25.554;2023-04-05T08:10:45;99114.56;;;10.45;48.87
43488;BME280;29078;41.932;25.554;2023-04-05T08:13:11;99150.69;;;10.66;48.88
43488;BME280;29078;41.932;25.554;2023-04-05T08:15:36;99035.16;;;9.89;48.48
43488;BME280;29078;41.932;25.554;2023-04-05T08:18:01;99074.75;;;10.25;48.66
43488;BME280;29078;41.932;25.554;2023-04-05T08:20:27;99031.78;;;9.95;48.55
43488;BME280;29078;41.932;25.554;2023-04-05T08:22:52;99155.41;;;10.92;48.75
43488;BME280;29078;41.932;25.554;2023-04-05T08:25:18;98950.72;;;9.82;48.48
43488;BME280;29078;41.932;25.554;2023-04-05T08:27:43;99160.75;;;11.20;48.38
43488;BME280;29078;41.932;25.554;2023-04-05T08:30:09;99034.47;;;10.38;48.34
43488;BME280;29078;41.932;25.554;2023-04-05T08:32:35;99135.16;;;11.20;47.92
43488;BME280;29078;41.932;25.554;2023-04-05T08:35:01;98970.13;;;10.17;48.08
43488;BME280;29078;41.932;25.554;2023-04-05T08:37:26;99164.56;;;11.38;47.85
43488;BME280;29078;41.932;25.554;2023-04-05T08:39:52;99162.72;;;11.39;47.59
43488;BME280;29078;41.932;25.554;2023-04-05T08:42:23;99167.22;;;11.38;47.38
43488;BME280;29078;41.932;25.554;2023-04-05T08:44:50;99158.69;;;11.43;47.68
43488;BME280;29078;41.932;25.554;2023-04-05T08:47:20;99133.00;;;11.30;47.26
43488;BME280;29078;41.932;25.554;2023-04-05T08:49:47;99141.50;;;11.26;47.53
43488;BME280;29078;41.932;25.554;2023-04-05T08:52:13;99171.97;;;11.50;47.96
43488;BME280;29078;41.932;25.554;2023-04-05T08:54:39;99171.97;;;11.50;48.12
43488;BME280;29078;41.932;25.554;2023-04-05T08:57:06;99132.75;;;11.25;47.92
43488;BME280;29078;41.932;25.554;2023-04-05T08:59:31;99141.94;;;11.29;47.82
43488;BME280;29078;41.932;25.554;2023-04-05T09:02:01;99182.00;;;11.61;47.83
43488;BME280;29078;41.932;25.554;2023-04-05T09:04:30;99061.88;;;10.79;47.16
43488;BME280;29078;41.932;25.554;2023-04-05T09:07:00;99202.97;;;11.62;47.36
43488;BME280;29078;41.932;25.554;2023-04-05T09:09:29;99190.28;;;11.51;46.65
43488;BME280;29078;41.932;25.554;2023-04-05T09:11:56;99172.19;;;11.55;47.79
43488;BME280;29078;41.932;25.554;2023-04-05T09:14:22;99194.56;;;11.80;47.86
43488;BME280;29078;41.932;25.554;2023-04-05T09:16:48;99193.59;;;11.88;47.85
43488;BME280;29078;41.932;25.554;2023-04-05T09:19:13;99195.91;;;11.97;47.55
43488;BME280;29078;41.932;25.554;2023-04-05T09:22:04;99195.34;;;12.08;47.16
43488;BME280;29078;41.932;25.554;2023-04-05T09:24:30;99195.41;;;12.22;46.93
43488;BME280;29078;41.932;25.554;2023-04-05T09:27:03;99200.53;;;12.30;46.88
43488;BME280;29078;41.932;25.554;2023-04-05T09:29:29;99196.09;;;12.37;46.92
43488;BME280;29078;41.932;25.554;2023-04-05T09:31:55;99201.97;;;12.32;46.53
43488;BME280;29078;41.932;25.554;2023-04-05T09:34:20;99179.53;;;12.22;46.62
43488;BME280;29078;41.932;25.554;2023-04-05T09:36:46;99160.38;;;12.13;46.50
43488;BME280;29078;41.932;25.554;2023-04-05T09:39:11;99197.69;;;12.31;46.86
43488;BME280;29078;41.932;25.554;2023-04-05T09:41:37;99148.25;;;11.91;46.39
43488;BME280;29078;41.932;25.554;2023-04-05T09:44:03;99057.31;;;11.23;47.16
43488;BME280;29078;41.932;25.554;2023-04-05T09:48:55;99204.94;;;12.09;47.73
43488;BME280;29078;41.932;25.554;2023-04-05T09:51:21;99190.50;;;12.12;47.82
43488;BME280;29078;41.932;25.554;2023-04-05T09:54:07;99200.09;;;12.20;47.33
43488;BME280;29078;41.932;25.554;2023-04-05T09:56:35;99216.56;;;12.15;47.17
43488;BME280;29078;41.932;25.554;2023-04-05T09:59:11;99057.09;;;11.18;46.79
43488;BME280;29078;41.932;25.554;2023-04-05T10:01:37;99092.22;;;11.46;47.48
43488;BME280;29078;41.932;25.554;2023-04-05T10:04:03;99146.00;;;11.60;47.35
43488;BME280;29078;41.932;25.554;2023-04-05T10:06:40;99205.72;;;12.03;47.04
43488;BME280;29078;41.932;25.554;2023-04-05T10:09:07;99091.53;;;11.31;47.26
43488;BME280;29078;41.932;25.554;2023-04-05T10:11:35;99210.03;;;11.83;47.73
43488;BME280;29078;41.932;25.554;2023-04-05T10:14:08;99184.25;;;11.64;47.30
43488;BME280;29078;41.932;25.554;2023-04-05T10:17:15;99216.19;;;11.62;47.48
43488;BME280;29078;41.932;25.554;2023-04-05T10:22:35;99062.38;;;10.68;47.69
43488;BME280;29078;41.932;25.554;2023-04-05T10:27:54;99207.63;;;11.60;47.85
43488;BME280;29078;41.932;25.554;2023-04-05T10:30:23;99079.59;;;10.86;47.72
43488;BME280;29078;41.932;25.554;2023-04-05T10:35:30;99209.69;;;11.65;47.73
43488;BME280;29078;41.932;25.554;2023-04-05T10:38:11;99182.69;;;11.41;47.56
43488;BME280;29078;41.932;25.554;2023-04-05T10:40:38;99223.34;;;11.68;47.80
43488;BME280;29078;41.932;25.554;2023-04-05T10:43:14;99216.00;;;11.64;47.65
43488;BME280;29078;41.932;25.554;2023-04-05T10:45:43;99213.72;;;11.61;47.36
43488;BME280;29078;41.932;25.554;2023-04-05T10:50:49;99204.16;;;11.60;47.09
43488;BME280;29078;41.932;25.554;2023-04-05T10:53:15;99128.16;;;11.12;46.64
43488;BME280;29078;41.932;25.554;2023-04-05T10:55:43;99208.91;;;11.71;46.81
43488;BME280;29078;41.932;25.554;2023-04-05T10:58:10;99164.84;;;11.50;46.90
43488;BME280;29078;41.932;25.554;2023-04-05T11:00:37;99196.59;;;11.78;47.32
43488;BME280;29078;41.932;25.554;2023-04-05T11:03:02;99213.56;;;11.90;46.55
43488;BME280;29078;41.932;25.554;2023-04-05T11:05:36;99067.97;;;11.08;46.58
43488;BME280;29078;41.932;25.554;2023-04-05T11:08:05;99125.19;;;11.50;47.12
43488;BME280;29078;41.932;25.554;2023-04-05T11:10:34;99221.31;;;11.92;46.87
43488;BME280;29078;41.932;25.554;2023-04-05T11:18:11;99218.06;;;11.68;48.06
43488;BME280;29078;41.932;25.554;2023-04-05T11:20:49;99222.88;;;11.58;48.04
43488;BME280;29078;41.932;25.554;2023-04-05T11:23:22;99227.66;;;11.48;48.56
43488;BME280;29078;41.932;25.554;2023-04-05T11:25:52;99218.44;;;11.37;48.89
43488;BME280;29078;41.932;25.554;2023-04-05T11:28:37;99177.75;;;10.89;50.88
43488;BME280;29078;41.932;25.554;2023-04-05T11:31:16;99155.78;;;10.67;50.19
43488;BME280;29078;41.932;25.554;2023-04-05T11:36:08;99125.13;;;10.45;50.82
43488;BME280;29078;41.932;25.554;2023-04-05T11:38:35;99210.94;;;10.98;50.94
43488;BME280;29078;41.932;25.554;2023-04-05T11:41:15;99204.91;;;11.04;51.32
43488;BME280;29078;41.932;25.554;2023-04-05T11:43:49;99091.88;;;10.50;51.84
43488;BME280;29078;41.932;25.554;2023-04-05T11:46:17;99211.66;;;11.28;51.08
43488;BME280;29078;41.932;25.554;2023-04-05T11:48:49;99211.66;;;11.28;51.20
43488;BME280;29078;41.932;25.554;2023-04-05T11:51:15;99198.31;;;11.15;50.48
43488;BME280;29078;41.932;25.554;2023-04-05T11:53:45;99214.19;;;11.15;51.79
43488;BME280;29078;41.932;25.554;2023-04-05T11:56:11;99078.00;;;10.27;51.43
43488;BME280;29078;41.932;25.554;2023-04-05T11:58:37;99206.31;;;11.22;51.13
43488;BME280;29078;41.932;25.554;2023-04-05T12:01:04;99203.84;;;11.20;51.59
43488;BME280;29078;41.932;25.554;2023-04-05T12:03:34;99080.50;;;10.50;51.77
43488;BME280;29078;41.932;25.554;2023-04-05T12:06:02;99081.31;;;10.50;51.55
43488;BME280;29078;41.932;25.554;2023-04-05T12:11:10;99171.63;;;11.10;50.75
43488;BME280;29078;41.932;25.554;2023-04-05T12:13:37;99191.31;;;11.29;51.21
43488;BME280;29078;41.932;25.554;2023-04-05T12:16:07;99193.19;;;11.35;51.59
43488;BME280;29078;41.932;25.554;2023-04-05T12:18:37;99190.75;;;11.33;51.73
43488;BME280;29078;41.932;25.554;2023-04-05T12:21:07;99160.38;;;11.23;51.52
43488;BME280;29078;41.932;25.554;2023-04-05T12:23:33;99153.56;;;11.13;51.73
43488;BME280;29078;41.932;25.554;2023-04-05T12:25:59;99192.88;;;11.44;51.46
43488;BME280;29078;41.932;25.554;2023-04-05T12:28:48;99192.88;;;11.44;50.26
43488;BME280;29078;41.932;25.554;2023-04-05T12:31:14;99180.81;;;11.35;50.89
43488;BME280;29078;41.932;25.554;2023-04-05T12:33:40;99030.00;;;10.38;49.86
43488;BME280;29078;41.932;25.554;2023-04-05T12:36:07;99084.19;;;10.77;50.54
43488;BME280;29078;41.932;25.554;2023-04-05T12:38:35;99146.34;;;11.22;51.07
43488;BME280;29078;41.932;25.554;2023-04-05T12:41:02;99160.47;;;11.36;49.60
43488;BME280;29078;41.932;25.554;2023-04-05T12:43:41;99195.38;;;11.53;49.46
43488;BME280;29078;41.932;25.554;2023-04-05T12:46:39;99196.91;;;11.40;48.96
43488;BME280;29078;41.932;25.554;2023-04-05T12:49:05;99122.56;;;11.01;49.87
43488;BME280;29078;41.932;25.554;2023-04-05T12:51:31;99157.34;;;11.26;50.06
43488;BME280;29078;41.932;25.554;2023-04-05T12:54:00;99077.66;;;10.73;49.61
43488;BME280;29078;41.932;25.554;2023-04-05T12:56:28;99226.09;;;11.54;49.68
43488;BME280;29078;41.932;25.554;2023-04-05T12:58:54;99036.38;;;10.65;49.81
43488;BME280;29078;41.932;25.554;2023-04-05T13:01:20;99187.09;;;11.62;49.62
43488;BME280;29078;41.932;25.554;2023-04-05T13:03:46;99195.31;;;11.74;49.53
43488;BME280;29078;41.932;25.554;2023-04-05T13:06:11;99197.41;;;11.78;49.28
43488;BME280;29078;41.932;25.554;2023-04-05T13:08:37;99063.44;;;11.02;49.49
43488;BME280;29078;41.932;25.554;2023-04-05T13:11:02;99081.31;;;11.00;49.50
43488;BME280;29078;41.932;25.554;2023-04-05T13:13:27;99069.84;;;10.86;48.54
43488;BME280;29078;41.932;25.554;2023-04-05T13:15:53;99038.03;;;10.73;49.19
43488;BME280;29078;41.932;25.554;2023-04-05T13:18:18;99098.84;;;11.07;49.32
43488;BME280;29078;41.932;25.554;2023-04-05T13:20:44;99072.09;;;10.89;48.99
43488;BME280;29078;41.932;25.554;2023-04-05T13:23:10;99075.50;;;10.83;48.87
43488;BME280;29078;41.932;25.554;2023-04-05T13:25:37;99064.94;;;10.83;49.40
43488;BME280;29078;41.932;25.554;2023-04-05T13:28:03;99202.63;;;11.72;48.94
43488;BME280;29078;41.932;25.554;2023-04-05T13:30:29;99188.63;;;11.50;48.64
43488;BME280;29078;41.932;25.554;2023-04-05T13:32:55;99153.66;;;11.20;49.18
43488;BME280;29078;41.932;25.554;2023-04-05T13:35:20;99200.03;;;11.51;48.69
43488;BME280;29078;41.932;25.554;2023-04-05T13:37:46;99210.81;;;11.49;48.71
43488;BME280;29078;41.932;25.554;2023-04-05T13:40:11;99170.13;;;11.22;49.06
43488;BME280;29078;41.932;25.554;2023-04-05T13:42:36;99206.22;;;11.36;48.67